createdAt,value
2018-07-02T00:02:26.491Z,2.10
2018-07-02T00:04:54.575Z,2.43
2018-07-02T00:07:25.631Z,2.30
2018-07-02T00:09:54.021Z,2.30
2018-07-02T00:12:22.931Z,2.30
2018-07-02T00:14:51.836Z,1.90
2018-07-02T00:17:19.892Z,2.40
2018-07-02T00:19:48.024Z,2.03
2018-07-02T00:22:16.379Z,2.40
2018-07-02T00:24:44.564Z,2.10
2018-07-02T00:27:12.604Z,2.17
2018-07-02T00:29:40.653Z,2.60
2018-07-02T00:32:08.744Z,2.20
2018-07-02T00:34:36.909Z,2.50
2018-07-02T00:37:05.008Z,2.80
2018-07-02T00:39:33.063Z,2.10
2018-07-02T00:42:01.122Z,2.73
2018-07-02T00:44:29.175Z,2.43
2018-07-02T00:46:57.215Z,2.30
2018-07-02T00:49:25.276Z,2.30
2018-07-02T00:51:53.351Z,2.10
2018-07-02T00:54:21.435Z,2.60
2018-07-02T00:56:49.611Z,2.33
2018-07-02T00:59:17.741Z,2.57
2018-07-02T01:01:45.853Z,2.13
2018-07-02T01:04:13.895Z,2.23
2018-07-02T01:06:41.984Z,2.00
2018-07-02T01:09:10.452Z,2.47
2018-07-02T01:11:38.517Z,2.33
2018-07-02T01:14:06.923Z,2.00
2018-07-02T01:16:34.997Z,1.73
2018-07-02T01:19:03.063Z,1.73
2018-07-02T01:21:31.113Z,1.73
2018-07-02T01:23:59.181Z,1.83
2018-07-02T01:26:27.226Z,2.00
2018-07-02T01:28:55.263Z,1.60
2018-07-02T01:31:23.331Z,1.60
2018-07-02T01:33:51.387Z,2.30
2018-07-02T01:36:19.443Z,2.27
2018-07-02T01:38:47.508Z,2.20
2018-07-02T01:41:15.544Z,2.00
2018-07-02T01:43:43.595Z,1.80
2018-07-02T01:46:11.644Z,1.53
2018-07-02T01:48:39.707Z,1.63
2018-07-02T01:51:07.736Z,1.67
2018-07-02T01:53:36.851Z,2.10
2018-07-02T01:56:04.911Z,1.90
2018-07-02T01:58:32.964Z,1.90
2018-07-02T02:01:01.008Z,1.60
2018-07-02T02:03:29.055Z,1.87
2018-07-02T02:05:57.376Z,1.80
2018-07-02T02:08:25.435Z,1.37
2018-07-02T02:10:53.500Z,1.73
2018-07-02T02:13:21.581Z,1.90
2018-07-02T02:15:49.731Z,1.87
2018-07-02T02:18:17.844Z,1.57
2018-07-02T02:20:45.971Z,1.50
2018-07-02T02:23:14.116Z,1.30
2018-07-02T02:25:42.338Z,1.57
2018-07-02T02:28:10.459Z,2.20
2018-07-02T02:30:38.611Z,1.93
2018-07-02T02:33:06.789Z,1.90
2018-07-02T02:35:34.882Z,1.57
2018-07-02T02:38:03.130Z,2.37
2018-07-02T02:40:31.187Z,2.17
2018-07-02T02:42:59.243Z,2.03
2018-07-02T02:45:27.296Z,2.17
2018-07-02T02:47:55.344Z,1.90
2018-07-02T02:50:23.390Z,2.20
2018-07-02T02:52:51.559Z,2.10
2018-07-02T02:55:19.683Z,2.30
2018-07-02T02:57:47.798Z,2.17
2018-07-02T03:00:16.018Z,2.00
2018-07-02T03:02:44.195Z,2.10
2018-07-02T03:05:12.531Z,1.90
2018-07-02T03:07:40.707Z,2.40
2018-07-02T03:10:08.770Z,2.30
2018-07-02T03:12:36.907Z,2.77
2018-07-02T03:15:05.291Z,2.30
2018-07-02T03:17:33.328Z,2.43
2018-07-02T03:20:01.387Z,2.43
2018-07-02T03:22:29.428Z,2.00
2018-07-02T03:24:57.448Z,2.20
2018-07-02T03:27:25.496Z,1.80
2018-07-02T03:29:53.571Z,2.80
2018-07-02T03:32:22.380Z,2.10
2018-07-02T03:34:50.497Z,2.10
2018-07-02T03:37:18.990Z,2.40
2018-07-02T03:39:47.079Z,2.30
2018-07-02T03:42:15.263Z,2.43
2018-07-02T03:44:43.323Z,3.07
2018-07-02T03:47:11.387Z,3.10
2018-07-02T03:49:39.527Z,2.30
2018-07-02T03:52:07.604Z,2.43
2018-07-02T03:54:35.639Z,2.40
2018-07-02T03:57:03.736Z,2.00
2018-07-02T03:59:31.795Z,2.27
2018-07-02T04:01:59.848Z,2.47
2018-07-02T04:04:27.903Z,2.07
2018-07-02T04:06:55.952Z,2.23
2018-07-02T04:09:23.971Z,2.40
2018-07-02T04:11:52.015Z,2.87
2018-07-02T04:14:20.059Z,3.00
2018-07-02T04:16:48.092Z,2.87
2018-07-02T04:19:16.396Z,2.60
2018-07-02T04:21:44.447Z,2.37
2018-07-02T04:24:12.526Z,2.30
2018-07-02T04:26:41.774Z,2.43
2018-07-02T04:29:10.175Z,2.20
2018-07-02T04:31:38.556Z,2.00
2018-07-02T04:34:06.663Z,2.63
2018-07-02T04:36:34.731Z,2.20
2018-07-02T04:39:02.932Z,2.10
2018-07-02T04:41:30.982Z,2.37
2018-07-02T04:43:59.036Z,3.00
2018-07-02T04:46:27.088Z,2.42
2018-07-02T04:48:55.127Z,2.00
2018-07-02T04:51:23.193Z,1.90
2018-07-02T04:53:51.299Z,1.90
2018-07-02T04:56:19.396Z,2.12
2018-07-02T04:58:47.511Z,1.87
2018-07-02T05:01:15.668Z,2.58
2018-07-02T05:03:43.895Z,1.90
2018-07-02T05:06:12.122Z,1.80
2018-07-02T05:08:40.216Z,2.15
2018-07-02T05:11:08.302Z,2.00
2018-07-02T05:13:36.481Z,2.25
2018-07-02T05:16:04.552Z,1.70
2018-07-02T05:18:32.620Z,1.50
2018-07-02T05:21:00.700Z,2.17
2018-07-02T05:23:28.759Z,1.70
2018-07-02T05:25:56.811Z,2.22
2018-07-02T05:28:24.847Z,2.08
2018-07-02T05:30:52.895Z,1.95
2018-07-02T05:33:20.943Z,1.40
2018-07-02T05:35:49.021Z,1.85
2018-07-02T05:38:17.208Z,2.80
2018-07-02T05:40:45.244Z,1.92
2018-07-02T05:43:13.341Z,1.60
2018-07-02T05:45:41.383Z,2.58
2018-07-02T05:48:09.441Z,2.27
2018-07-02T05:50:37.492Z,1.82
2018-07-02T05:53:05.541Z,1.87
2018-07-02T05:55:33.640Z,1.52
2018-07-02T05:58:01.755Z,2.02
2018-07-02T06:00:29.896Z,1.52
2018-07-02T06:02:57.872Z,2.20
2018-07-02T06:05:25.945Z,1.55
2018-07-02T06:07:54.096Z,1.90
2018-07-02T06:10:22.083Z,1.65
2018-07-02T06:12:50.152Z,1.95
2018-07-02T06:15:18.372Z,1.67
2018-07-02T06:17:46.458Z,1.55
2018-07-02T06:20:14.516Z,1.80
2018-07-02T06:22:42.589Z,1.25
2018-07-02T06:25:10.676Z,2.10
2018-07-02T06:27:38.883Z,1.98
2018-07-02T06:30:07.199Z,1.70
2018-07-02T06:32:35.254Z,2.12
2018-07-02T06:35:03.276Z,1.87
2018-07-02T06:37:31.368Z,1.90
2018-07-02T06:39:59.468Z,1.80
2018-07-02T06:42:27.528Z,1.52
2018-07-02T06:44:55.597Z,1.77
2018-07-02T06:47:23.623Z,1.90
2018-07-02T06:49:51.695Z,2.12
2018-07-02T06:52:20.025Z,1.98
2018-07-02T06:54:48.243Z,1.85
2018-07-02T06:57:16.290Z,1.90
2018-07-02T06:59:44.312Z,1.75
2018-07-02T07:02:12.411Z,2.40
2018-07-02T07:04:40.506Z,2.30
2018-07-02T07:07:08.532Z,2.40
2018-07-02T07:09:36.565Z,2.47
2018-07-02T07:12:04.583Z,2.27
2018-07-02T07:14:32.727Z,2.70
2018-07-02T07:17:00.760Z,2.25
2018-07-02T07:19:29.915Z,2.00
2018-07-02T07:21:57.953Z,2.10
2018-07-02T07:24:25.959Z,2.08
2018-07-02T07:26:53.993Z,1.77
2018-07-02T07:29:22.068Z,1.62
2018-07-02T07:31:50.153Z,2.17
2018-07-02T07:34:18.197Z,2.25
2018-07-02T07:36:46.291Z,2.42
2018-07-02T07:39:14.612Z,2.40
2018-07-02T07:41:42.636Z,1.80
2018-07-02T07:44:10.664Z,1.80
2018-07-02T07:46:38.712Z,1.92
2018-07-02T07:49:06.736Z,1.70
2018-07-02T07:51:35.033Z,1.55
2018-07-02T07:54:03.068Z,1.87
2018-07-02T07:56:31.103Z,1.82
2018-07-02T07:58:59.195Z,2.22
2018-07-02T08:01:27.220Z,1.82
2018-07-02T08:03:55.275Z,1.75
2018-07-02T08:06:23.319Z,1.72
2018-07-02T08:08:51.355Z,1.87
2018-07-02T08:11:19.393Z,1.50
2018-07-02T08:13:47.403Z,2.10
2018-07-02T08:16:15.456Z,2.30
2018-07-02T08:18:43.507Z,2.00
2018-07-02T08:21:11.551Z,1.95
2018-07-02T08:23:39.591Z,1.95
2018-07-02T08:26:07.614Z,1.67
2018-07-02T08:28:35.631Z,1.70
2018-07-02T08:31:03.715Z,1.50
2018-07-02T08:33:31.830Z,2.30
2018-07-02T08:35:59.873Z,2.40
2018-07-02T08:38:27.899Z,1.90
2018-07-02T08:40:56.207Z,1.60
2018-07-02T08:43:24.264Z,1.80
2018-07-02T08:45:52.301Z,1.55
2018-07-02T08:48:20.365Z,1.90
2018-07-02T08:50:48.412Z,2.08
2018-07-02T08:53:16.504Z,2.40
2018-07-02T08:55:44.776Z,2.65
2018-07-02T08:58:12.943Z,2.35
2018-07-02T09:00:41.064Z,2.20
2018-07-02T09:03:09.152Z,2.27
2018-07-02T09:05:37.384Z,2.22
2018-07-02T09:08:05.704Z,2.50
2018-07-02T09:10:34.002Z,2.02
2018-07-02T09:13:02.065Z,2.30
2018-07-02T09:15:30.091Z,2.85
2018-07-02T09:17:58.159Z,1.92
2018-07-02T09:20:26.200Z,1.75
2018-07-02T09:22:54.242Z,1.72
2018-07-02T09:25:22.304Z,2.20
2018-07-02T09:27:50.347Z,1.75
2018-07-02T09:30:18.382Z,1.95
2018-07-02T09:32:46.420Z,1.92
2018-07-02T09:35:14.444Z,1.50
2018-07-02T09:37:42.495Z,1.92
2018-07-02T09:40:10.533Z,2.58
2018-07-02T09:42:38.584Z,1.82
2018-07-02T09:45:06.739Z,1.95
2018-07-02T09:47:34.797Z,2.37
2018-07-02T09:50:02.845Z,2.10
2018-07-02T09:52:30.898Z,1.98
2018-07-02T09:54:58.955Z,2.30
2018-07-02T09:57:26.992Z,1.60
2018-07-02T09:59:55.079Z,1.65
2018-07-02T10:02:23.194Z,1.98
2018-07-02T10:04:51.452Z,1.90
2018-07-02T10:07:19.535Z,2.15
2018-07-02T10:09:47.639Z,1.70
2018-07-02T10:12:15.857Z,1.40
2018-07-02T10:14:44.046Z,2.05
2018-07-02T10:17:12.272Z,1.45
2018-07-02T10:19:40.319Z,1.60
2018-07-02T10:22:08.374Z,1.57
2018-07-02T10:24:36.505Z,1.70
2018-07-02T10:27:04.662Z,1.50
2018-07-02T10:29:32.693Z,1.70
2018-07-02T10:32:00.805Z,1.70
2018-07-02T10:34:28.928Z,1.72
2018-07-02T10:36:56.996Z,1.75
2018-07-02T10:39:25.041Z,1.57
2018-07-02T10:41:53.094Z,1.98
2018-07-02T10:44:21.175Z,1.45
2018-07-02T10:46:49.304Z,1.40
2018-07-02T10:49:17.343Z,1.70
2018-07-02T10:51:45.591Z,1.57
2018-07-02T10:54:13.639Z,1.85
2018-07-02T10:56:41.873Z,1.95
2018-07-02T10:59:10.016Z,1.70
2018-07-02T11:01:38.049Z,1.90
2018-07-02T11:04:06.115Z,2.08
2018-07-02T11:06:34.216Z,1.80
2018-07-02T11:09:02.252Z,1.60
2018-07-02T11:11:30.316Z,1.52
2018-07-02T11:13:58.339Z,1.70
2018-07-02T11:16:26.361Z,1.57
2018-07-02T11:18:54.427Z,2.00
2018-07-02T11:21:22.451Z,1.98
2018-07-02T11:23:50.470Z,2.10
2018-07-02T11:26:18.510Z,2.00
2018-07-02T11:28:46.539Z,1.75
2018-07-02T11:31:14.648Z,1.52
2018-07-02T11:33:42.691Z,2.67
2018-07-02T11:36:10.731Z,1.77
2018-07-02T11:38:38.795Z,2.35
2018-07-02T11:41:06.827Z,1.90
2018-07-02T11:43:34.881Z,2.05
2018-07-02T11:46:02.944Z,2.10
2018-07-02T11:48:30.975Z,1.30
2018-07-02T11:50:59.025Z,1.22
2018-07-02T11:53:27.052Z,1.70
2018-07-02T11:55:55.084Z,1.82
2018-07-02T11:58:23.128Z,1.50
2018-07-02T12:00:51.176Z,1.85
2018-07-02T12:03:19.324Z,2.30
2018-07-02T12:05:47.363Z,1.85
2018-07-02T12:08:15.385Z,2.15
2018-07-02T12:10:43.473Z,1.60
2018-07-02T12:13:11.546Z,1.85
2018-07-02T12:15:39.604Z,1.87
2018-07-02T12:18:07.677Z,2.20
2018-07-02T12:20:35.714Z,1.57
2018-07-02T12:23:03.763Z,2.10
2018-07-02T12:25:31.876Z,1.62
2018-07-02T12:27:59.920Z,2.08
2018-07-02T12:30:28.056Z,2.00
2018-07-02T12:32:56.118Z,1.67
2018-07-02T12:35:24.180Z,1.80
2018-07-02T12:37:52.300Z,1.62
2018-07-02T12:40:20.392Z,2.10
2018-07-02T12:42:48.427Z,2.40
2018-07-02T12:45:16.570Z,1.85
2018-07-02T12:47:44.584Z,2.10
2018-07-02T12:50:12.620Z,1.27
2018-07-02T12:52:40.681Z,1.55
2018-07-02T12:55:08.708Z,1.82
2018-07-02T12:57:36.791Z,2.12
2018-07-02T13:00:06.034Z,1.57
2018-07-02T13:02:34.124Z,1.40
2018-07-02T13:05:02.168Z,1.85
2018-07-02T13:07:30.229Z,2.05
2018-07-02T13:09:58.277Z,2.02
2018-07-02T13:12:26.319Z,2.00
2018-07-02T13:14:54.460Z,1.98
2018-07-02T13:17:22.499Z,2.10
2018-07-02T13:19:50.692Z,1.62
2018-07-02T13:22:18.797Z,1.27
2018-07-02T13:24:47.073Z,1.90
2018-07-02T13:27:15.189Z,1.82
2018-07-02T13:29:43.352Z,1.80
2018-07-02T13:32:11.582Z,1.62
2018-07-02T13:34:39.669Z,1.50
2018-07-02T13:37:07.715Z,1.90
2018-07-02T13:39:35.841Z,1.70
2018-07-02T13:42:03.951Z,1.47
2018-07-02T13:44:31.983Z,1.40
2018-07-02T13:47:00.477Z,1.77
2018-07-02T13:49:28.635Z,1.55
2018-07-02T13:51:56.891Z,1.50
2018-07-02T13:54:24.968Z,1.42
2018-07-02T13:56:53.001Z,1.50
2018-07-02T13:59:21.131Z,1.22
2018-07-02T14:01:50.139Z,1.75
2018-07-02T14:04:18.176Z,1.62
2018-07-02T14:06:46.284Z,1.55
2018-07-02T14:09:14.397Z,1.75
2018-07-02T14:11:42.800Z,1.60
2018-07-02T14:14:10.895Z,1.30
2018-07-02T14:16:39.942Z,1.42
2018-07-02T14:19:07.975Z,1.12
2018-07-02T14:21:36.013Z,1.22
2018-07-02T14:24:04.048Z,2.27
2018-07-02T14:26:32.196Z,1.32
2018-07-02T14:29:00.228Z,1.37
2018-07-02T14:31:28.263Z,1.98
2018-07-02T14:33:56.331Z,1.55
2018-07-02T14:36:24.420Z,1.77
2018-07-02T14:38:52.587Z,1.90
2018-07-02T14:41:21.071Z,1.87
2018-07-02T14:43:49.278Z,1.30
2018-07-02T14:46:17.660Z,1.65
2018-07-02T14:48:46.035Z,1.82
2018-07-02T14:51:14.401Z,1.92
2018-07-02T14:53:42.865Z,1.70
2018-07-02T14:56:10.981Z,1.22
2018-07-02T14:58:39.077Z,1.45
2018-07-02T15:01:07.127Z,1.30
2018-07-02T15:03:35.241Z,1.47
2018-07-02T15:06:03.295Z,1.57
2018-07-02T15:08:31.339Z,1.42
2018-07-02T15:10:59.477Z,1.55
2018-07-02T15:13:27.524Z,1.77
2018-07-02T15:15:55.567Z,1.57
2018-07-02T15:18:23.616Z,1.70
2018-07-02T15:20:51.667Z,1.50
2018-07-02T15:23:19.774Z,1.90
2018-07-02T15:25:47.824Z,2.15
2018-07-02T15:28:15.859Z,3.08
2018-07-02T15:30:44.262Z,3.62
2018-07-02T15:33:12.299Z,4.30
2018-07-02T15:35:40.346Z,3.70
2018-07-02T15:38:08.385Z,3.67
2018-07-02T15:40:36.437Z,3.22
2018-07-02T15:43:04.467Z,3.42
2018-07-02T15:45:32.575Z,3.17
2018-07-02T15:48:00.863Z,3.98
2018-07-02T15:50:28.879Z,2.30
2018-07-02T15:52:57.088Z,2.85
2018-07-02T15:55:25.111Z,2.40
2018-07-02T15:57:53.261Z,2.25
2018-07-02T16:00:21.279Z,2.58
2018-07-02T16:02:49.314Z,2.55
2018-07-02T16:05:17.348Z,1.90
2018-07-02T16:07:45.465Z,1.85
2018-07-02T16:10:14.672Z,1.70
2018-07-02T16:12:43.560Z,1.50
2018-07-02T16:15:11.703Z,1.60
2018-07-02T16:17:40.512Z,1.95
2018-07-02T16:20:08.630Z,1.70
2018-07-02T16:22:36.706Z,1.50
2018-07-02T16:25:04.817Z,2.20
2018-07-02T16:27:32.867Z,2.02
2018-07-02T16:30:00.920Z,1.77
2018-07-02T16:32:28.972Z,1.90
2018-07-02T16:34:57.103Z,2.02
2018-07-02T16:37:25.480Z,1.60
2018-07-02T16:39:53.881Z,1.37
2018-07-02T16:42:22.155Z,1.67
2018-07-02T16:44:50.621Z,1.65
2018-07-02T16:47:19.015Z,1.57
2018-07-02T16:49:48.905Z,1.52
2018-07-02T16:52:18.428Z,1.75
2018-07-02T16:54:46.491Z,2.08
2018-07-02T16:57:14.523Z,1.20
2018-07-02T16:59:42.993Z,1.65
2018-07-02T17:02:11.057Z,1.70
2018-07-02T17:04:39.099Z,1.47
2018-07-02T17:07:07.303Z,1.90
2018-07-02T17:09:35.383Z,2.27
2018-07-02T17:12:03.403Z,1.95
2018-07-02T17:14:31.648Z,1.98
2018-07-02T17:16:59.692Z,2.05
2018-07-02T17:19:27.864Z,1.60
2018-07-02T17:21:55.960Z,2.00
2018-07-02T17:24:24.088Z,2.08
2018-07-02T17:26:54.413Z,2.20
2018-07-02T17:29:22.782Z,2.00
2018-07-02T17:31:51.043Z,2.00
2018-07-02T17:34:19.223Z,2.20
2018-07-02T17:36:47.368Z,1.77
2018-07-02T17:39:15.478Z,1.80
2018-07-02T17:41:43.622Z,1.60
2018-07-02T17:44:11.932Z,1.60
2018-07-02T17:46:39.956Z,1.45
2018-07-02T17:49:08.091Z,2.10
2018-07-02T17:51:36.436Z,1.57
2018-07-02T17:54:04.713Z,1.90
2018-07-02T17:56:32.761Z,2.12
2018-07-02T17:59:00.872Z,2.00
2018-07-02T18:01:28.988Z,2.30
2018-07-02T18:03:57.017Z,1.80
2018-07-02T18:06:25.131Z,1.70
2018-07-02T18:08:53.163Z,1.32
2018-07-02T18:11:21.420Z,1.90
2018-07-02T18:13:49.693Z,1.57
2018-07-02T18:16:17.780Z,1.30
2018-07-02T18:18:45.800Z,1.50
2018-07-02T18:21:13.834Z,1.25
2018-07-02T18:23:41.871Z,1.27
2018-07-02T18:26:09.939Z,1.72
2018-07-02T18:28:38.345Z,1.70
2018-07-02T18:31:06.422Z,1.80
2018-07-02T18:33:34.444Z,1.80
2018-07-02T18:36:03.486Z,1.80
2018-07-02T18:38:31.508Z,1.87
2018-07-02T18:40:59.535Z,2.10
2018-07-02T18:43:27.567Z,2.25
2018-07-02T18:45:55.600Z,2.42
2018-07-02T18:48:23.861Z,2.20
2018-07-02T18:50:52.016Z,2.25
2018-07-02T18:53:20.201Z,1.98
2018-07-02T18:55:48.270Z,1.98
2018-07-02T18:58:16.656Z,2.67
2018-07-02T19:00:44.683Z,1.90
2018-07-02T19:03:12.715Z,2.10
2018-07-02T19:05:40.761Z,3.37
2018-07-02T19:08:08.807Z,2.55
2018-07-02T19:10:36.876Z,2.10
2018-07-02T19:13:05.182Z,1.90
2018-07-02T19:15:33.207Z,5.40
2018-07-02T19:18:01.235Z,6.35
2018-07-02T19:20:29.421Z,6.08
2018-07-02T19:22:57.452Z,4.00
2018-07-02T19:25:25.476Z,2.50
2018-07-02T19:27:53.509Z,1.65
2018-07-02T19:30:21.581Z,2.00
2018-07-02T19:32:49.638Z,2.17
2018-07-02T19:35:17.645Z,1.80
2018-07-02T19:37:45.688Z,1.52
2018-07-02T19:40:14.106Z,1.70
2018-07-02T19:42:42.159Z,1.65
2018-07-02T19:45:10.292Z,1.65
2018-07-02T19:47:38.352Z,1.40
2018-07-02T19:50:06.384Z,1.70
2018-07-02T19:52:34.441Z,1.45
2018-07-02T19:55:02.823Z,1.60
2018-07-02T19:57:30.815Z,1.75
2018-07-02T19:59:58.941Z,1.75
2018-07-02T20:02:26.973Z,1.40
2018-07-02T20:04:55.032Z,1.92
2018-07-02T20:07:23.148Z,2.05
2018-07-02T20:09:51.172Z,1.80
2018-07-02T20:12:19.235Z,1.80
2018-07-02T20:14:47.324Z,1.85
2018-07-02T20:17:15.595Z,2.10
2018-07-02T20:19:43.744Z,1.80
2018-07-02T20:22:12.047Z,2.60
2018-07-02T20:24:40.084Z,2.70
2018-07-02T20:27:08.212Z,2.40
2018-07-02T20:29:36.247Z,2.70
2018-07-02T20:32:04.412Z,2.45
2018-07-02T20:34:32.640Z,2.80
2018-07-02T20:37:00.668Z,2.60
2018-07-02T20:39:28.856Z,2.40
2018-07-02T20:41:56.984Z,2.00
2018-07-02T20:44:25.062Z,2.17
2018-07-02T20:46:53.365Z,2.50
2018-07-02T20:49:21.384Z,2.45
2018-07-02T20:51:49.543Z,2.12
2018-07-02T20:54:17.772Z,2.50
2018-07-02T20:56:45.863Z,2.50
2018-07-02T20:59:14.309Z,2.17
2018-07-02T21:01:42.395Z,2.47
2018-07-02T21:04:10.787Z,2.70
2018-07-02T21:06:38.883Z,2.60
2018-07-02T21:09:08.825Z,2.70
2018-07-02T21:11:37.009Z,2.52
2018-07-02T21:14:05.247Z,2.30
2018-07-02T21:16:33.280Z,2.98
2018-07-02T21:19:01.352Z,2.95
2018-07-02T21:21:29.432Z,2.92
2018-07-02T21:23:57.624Z,3.50
2018-07-02T21:26:25.752Z,2.77
2018-07-02T21:28:54.285Z,3.30
2018-07-02T21:31:22.343Z,2.60
2018-07-02T21:33:50.431Z,2.67
2018-07-02T21:36:18.570Z,2.43
2018-07-02T21:38:46.969Z,2.20
2018-07-02T21:41:15.169Z,2.10
2018-07-02T21:43:43.300Z,2.27
2018-07-02T21:46:11.449Z,2.10
2018-07-02T21:48:39.527Z,2.37
2018-07-02T21:51:07.980Z,2.53
2018-07-02T21:53:36.021Z,2.60
2018-07-02T21:56:04.099Z,2.27
2018-07-02T21:58:32.282Z,2.20
2018-07-02T22:01:00.324Z,2.57
2018-07-02T22:03:28.387Z,2.30
2018-07-02T22:05:56.465Z,2.53
2018-07-02T22:08:24.505Z,2.30
2018-07-02T22:10:52.582Z,2.20
2018-07-02T22:13:20.861Z,2.57
2018-07-02T22:15:48.969Z,2.50
2018-07-02T22:18:17.045Z,2.33
2018-07-02T22:20:45.341Z,2.70
2018-07-02T22:23:13.636Z,2.50
2018-07-02T22:25:41.841Z,2.67
2018-07-02T22:28:09.919Z,2.73
2018-07-02T22:30:38.153Z,2.67
2018-07-02T22:33:06.265Z,2.60
2018-07-02T22:35:34.312Z,2.63
2018-07-02T22:38:02.732Z,2.90
2018-07-02T22:40:30.770Z,2.67
2018-07-02T22:42:58.957Z,2.63
2018-07-02T22:45:27.116Z,2.57
2018-07-02T22:47:55.169Z,2.27
2018-07-02T22:50:23.220Z,2.00
2018-07-02T22:52:51.371Z,2.10
2018-07-02T22:55:19.511Z,2.50
2018-07-02T22:57:47.668Z,2.33
2018-07-02T23:00:15.839Z,2.37
2018-07-02T23:02:43.971Z,2.37
2018-07-02T23:05:12.175Z,2.33
2018-07-02T23:07:40.454Z,1.83
2018-07-02T23:10:08.618Z,2.03
2018-07-02T23:12:36.676Z,2.00
2018-07-02T23:15:04.779Z,2.40
2018-07-02T23:17:32.980Z,2.17
2018-07-02T23:20:01.040Z,2.03
2018-07-02T23:22:40.055Z,1.70
2018-07-02T23:25:08.109Z,2.70
2018-07-02T23:27:36.272Z,2.57
2018-07-02T23:30:04.323Z,2.20
2018-07-02T23:32:32.367Z,2.40
2018-07-02T23:35:00.433Z,2.10
2018-07-02T23:37:28.464Z,2.13
2018-07-02T23:39:56.540Z,2.30
2018-07-02T23:42:24.629Z,2.07
2018-07-02T23:44:52.775Z,1.97
2018-07-02T23:47:21.045Z,1.77
2018-07-02T23:49:49.259Z,2.07
2018-07-02T23:52:17.582Z,2.20
2018-07-02T23:54:45.816Z,2.47
2018-07-02T23:57:14.087Z,2.13
2018-07-02T23:59:42.576Z,2.00
